Time;durP1;ratioP1;P1;durP2;ratioP2;P2;SDS_P1;SDS_P2;PMS_P1;PMS_P2;Temp;Humidity;BMP_temperature;BMP_pressure;BME280_temperature;BME280_humidity;BME280_pressure;Samples;Min_cycle;Max_cycle;Signal;HPM_P1;HPM_P2
2023/04/05 00:00:55;;;;;;;8.88;4.13;;;77.40;2227.20;;;;;;5056740;28;19970;-69
2023/04/05 00:03:20;;;;;;;;;;;77.40;2227.20;;;;;;5064929;28;20029;-69
2023/04/05 00:05:48;;;;;;;11.65;4.32;;;77.40;2227.20;;;;;;5064638;28;19948;-70
2023/04/05 00:08:22;;;;;;;8.82;4.30;;;77.40;2227.20;;;;;;5056188;28;20090;-69
2023/04/05 00:10:48;;;;;;;6.28;3.88;;;77.20;2227.20;;;;;;5068108;28;20091;-69
2023/04/05 00:13:14;;;;;;;7.28;3.88;;;77.20;2227.20;;;;;;5065229;28;20029;-70
2023/04/05 00:15:40;;;;;;;;;;;77.10;2227.20;;;;;;5059086;28;20132;-69
2023/04/05 00:18:06;;;;;;;6.60;3.25;;;77.10;2227.20;;;;;;5061137;28;19912;-69
2023/04/05 00:20:32;;;;;;;;;;;77.10;2227.20;;;;;;5072701;28;20090;-68
2023/04/05 00:22:58;;;;;;;9.45;4.80;;;77.10;2227.20;;;;;;5064895;28;19962;-70
2023/04/05 00:25:25;;;;;;;12.88;3.83;;;77.20;2227.20;;;;;;5060690;28;20035;-69
2023/04/05 00:27:50;;;;;;;9.90;4.38;;;77.20;2227.20;;;;;;5072206;28;20042;-69
2023/04/05 00:30:19;;;;;;;;;;;77.20;2227.20;;;;;;5076081;28;20225;-79
2023/04/05 00:32:49;;;;;;;9.68;4.28;;;77.20;2227.20;;;;;;5077735;28;19904;-69
2023/04/05 00:35:15;;;;;;;11.65;3.47;;;77.20;2227.20;;;;;;5095681;28;20035;-68
2023/04/05 00:37:41;;;;;;;9.02;4.05;;;77.30;2227.20;;;;;;5082081;28;20027;-80
2023/04/05 00:40:07;;;;;;;;;;;77.30;2227.20;;;;;;5082926;28;20037;-79
2023/04/05 00:42:33;;;;;;;9.35;4.20;;;77.30;2227.20;;;;;;5093080;28;19994;-69
2023/04/05 00:44:59;;;;;;;;;;;77.20;2227.20;;;;;;5095253;28;20082;-77
2023/04/05 00:47:25;;;;;;;10.45;4.63;;;77.20;2227.20;;;;;;5095339;28;19908;-71
2023/04/05 00:49:51;;;;;;;;;;;77.20;2227.20;;;;;;5095550;28;20038;-69
2023/04/05 00:52:18;;;;;;;7.15;3.28;;;77.20;2227.20;;;;;;5095336;28;19904;-80
2023/04/05 00:54:44;;;;;;;8.55;4.25;;;77.20;2227.20;;;;;;5094740;28;20022;-79
2023/04/05 00:57:10;;;;;;;;;;;77.20;2227.20;;;;;;5092387;28;20086;-67
2023/04/05 00:59:36;;;;;;;7.57;3.45;;;77.10;2227.20;;;;;;5061030;28;20206;-69
2023/04/05 01:02:05;;;;;;;;;;;77.00;2227.20;;;;;;5055190;28;20032;-70
2023/04/05 01:04:35;;;;;;;8.82;3.97;;;77.00;2227.20;;;;;;5082117;28;20413;-69
2023/04/05 01:07:46;;;;;;;11.25;4.63;;;77.00;2227.20;;;;;;5094386;28;20020;-69
2023/04/05 01:10:15;;;;;;;10.30;5.35;;;77.00;2227.20;;;;;;5052145;28;20124;-68
2023/04/05 01:12:41;;;;;;;8.07;4.07;;;77.00;2227.20;;;;;;5052347;28;20033;-69
2023/04/05 01:15:06;;;;;;;;;;;77.00;2227.20;;;;;;5052334;28;20037;-68
2023/04/05 01:17:37;;;;;;;11.38;4.82;;;77.00;2227.20;;;;;;5051817;28;19904;-69
2023/04/05 01:20:11;;;;;;;8.63;4.90;;;76.90;2227.20;;;;;;5051606;28;20064;-68
2023/04/05 01:23:08;;;;;;;7.10;3.88;;;77.00;2227.20;;;;;;5052391;28;20021;-69
2023/04/05 01:25:59;;;;;;;8.23;3.75;;;76.80;2227.20;;;;;;5052224;28;20028;-69
2023/04/05 01:28:56;;;;;;;8.25;4.28;;;76.80;2227.20;;;;;;5051592;28;20096;-68
2023/04/05 01:31:25;;;;;;;10.52;4.60;;;76.80;2227.20;;;;;;5051578;28;20091;-68
2023/04/05 01:34:00;;;;;;;9.90;4.20;;;52.10;2227.20;;;;;;5051938;28;20025;-70
2023/04/05 01:37:04;;;;;;;9.55;4.28;;;52.10;2227.20;;;;;;5051892;28;20124;-69
2023/04/05 01:39:31;;;;;;;15.25;5.13;;;52.00;2227.20;;;;;;5050476;28;20091;-69
2023/04/05 01:42:01;;;;;;;12.07;4.75;;;52.00;2227.20;;;;;;5051591;28;20021;-70
2023/04/05 01:44:27;;;;;;;9.65;4.50;;;52.10;2227.20;;;;;;5064059;28;20511;-68
2023/04/05 01:46:53;;;;;;;9.55;5.45;;;52.00;2227.20;;;;;;5093872;28;20435;-68
2023/04/05 01:49:18;;;;;;;;;;;52.10;2227.20;;;;;;5093957;28;20066;-68
2023/04/05 01:51:44;;;;;;;9.35;4.45;;;52.10;2227.20;;;;;;5093571;28;19951;-68
2023/04/05 01:54:10;;;;;;;;;;;52.10;2227.20;;;;;;5093969;28;20075;-69
2023/04/05 01:56:35;;;;;;;12.75;5.18;;;52.10;2227.20;;;;;;5093640;28;19918;-69
2023/04/05 01:59:01;;;;;;;;;;;52.10;2227.20;;;;;;5093502;28;20027;-68
2023/04/05 02:01:27;;;;;;;11.90;4.68;;;52.00;2227.20;;;;;;5093550;28;20353;-68
2023/04/05 02:03:52;;;;;;;;;;;51.90;2227.20;;;;;;5093950;28;20031;-69
2023/04/05 02:06:18;;;;;;;7.68;5.05;;;51.90;2227.20;;;;;;5086926;28;19904;-68
2023/04/05 02:08:43;;;;;;;;;;;52.00;2227.20;;;;;;5087026;28;20105;-70
2023/04/05 02:11:10;;;;;;;9.55;4.53;;;52.00;2227.20;;;;;;5093428;28;20380;-68
2023/04/05 02:13:35;;;;;;;12.00;4.63;;;52.00;2227.20;;;;;;5093511;28;20047;-69
2023/04/05 02:16:01;;;;;;;;;;;51.90;2227.20;;;;;;5066530;28;20729;-68
2023/04/05 02:18:30;;;;;;;9.20;4.43;;;52.00;2227.20;;;;;;5093256;28;19915;-68
2023/04/05 02:21:07;;;;;;;12.65;4.72;;;51.90;2227.20;;;;;;5093410;28;20020;-68
2023/04/05 02:23:33;;;;;;;11.07;5.72;;;52.00;2227.20;;;;;;5093145;28;20031;-68
2023/04/05 02:25:59;;;;;;;7.45;4.47;;;52.10;2227.20;;;;;;5093544;28;20020;-68
2023/04/05 02:28:25;;;;;;;9.60;4.40;;;52.10;2227.20;;;;;;5092879;28;20050;-68
2023/04/05 02:30:51;;;;;;;11.10;4.65;;;52.10;2227.20;;;;;;5093038;28;20066;-68
2023/04/05 02:33:17;;;;;;;;;;;52.10;2227.20;;;;;;5093249;28;20024;-68
2023/04/05 02:35:43;;;;;;;12.20;5.80;;;52.00;2227.20;;;;;;5093231;28;19912;-68
2023/04/05 02:38:09;;;;;;;9.05;4.53;;;52.10;2227.20;;;;;;5093050;28;20100;-68
2023/04/05 02:40:34;;;;;;;;;;;76.80;2227.20;;;;;;5093837;28;20055;-68
2023/04/05 02:43:00;;;;;;;9.05;4.38;;;52.10;2227.20;;;;;;5092923;28;20390;-68
2023/04/05 02:45:27;;;;;;;10.50;5.18;;;52.10;2227.20;;;;;;5092722;28;20052;-68
2023/04/05 02:47:54;;;;;;;12.00;5.43;;;52.10;2227.20;;;;;;5092635;28;20016;-68
2023/04/05 02:50:19;;;;;;;9.35;5.18;;;76.80;2227.20;;;;;;5093162;28;20024;-67
2023/04/05 02:52:46;;;;;;;;;;;52.10;2227.20;;;;;;5094520;28;20020;-68
2023/04/05 02:55:12;;;;;;;9.27;4.35;;;76.80;2227.20;;;;;;5086010;28;20376;-68
2023/04/05 02:57:38;;;;;;;;;;;52.10;2227.20;;;;;;5097677;28;20024;-68
2023/04/05 03:00:06;;;;;;;9.65;5.10;;;76.80;2227.20;;;;;;5097295;28;19908;-68
2023/04/05 03:02:31;;;;;;;11.25;5.15;;;52.10;2227.20;;;;;;5096831;28;20028;-68
2023/04/05 03:04:57;;;;;;;;;;;52.10;2227.20;;;;;;5097166;28;20545;-68
2023/04/05 03:07:24;;;;;;;11.70;5.43;;;76.80;2227.20;;;;;;5096664;28;19948;-68
2023/04/05 03:09:50;;;;;;;12.68;6.60;;;76.80;2227.20;;;;;;5096899;28;20031;-68
2023/04/05 03:12:15;;;;;;;;;;;76.80;2227.20;;;;;;5097239;28;20479;-68
2023/04/05 03:14:41;;;;;;;11.73;5.15;;;76.90;2227.20;;;;;;5096518;28;19914;-68
2023/04/05 03:17:07;;;;;;;;;;;76.80;2227.20;;;;;;5096806;28;20040;-68
2023/04/05 03:19:34;;;;;;;12.15;4.88;;;76.90;2227.20;;;;;;5097003;28;20356;-68
2023/04/05 03:22:00;;;;;;;7.32;4.30;;;76.80;2227.20;;;;;;5096281;28;20469;-68
2023/04/05 03:24:25;;;;;;;;;;;76.90;2227.20;;;;;;5097274;28;20026;-66
2023/04/05 03:26:52;;;;;;;7.68;4.10;;;76.80;2227.20;;;;;;5096412;28;19963;-68
2023/04/05 03:29:17;;;;;;;;;;;76.90;2227.20;;;;;;5087805;28;20029;-68
2023/04/05 03:31:44;;;;;;;11.50;4.78;;;77.10;2227.20;;;;;;5092394;28;19958;-68
2023/04/05 03:34:10;;;;;;;11.20;4.90;;;77.00;2227.20;;;;;;5096656;28;20032;-68
2023/04/05 03:36:41;;;;;;;;;;;77.10;2227.20;;;;;;5096199;28;20101;-68
2023/04/05 03:39:11;;;;;;;14.43;4.65;;;77.10;2227.20;;;;;;5096195;28;20368;-68
2023/04/05 03:41:38;;;;;;;11.80;4.50;;;77.00;2227.20;;;;;;5096016;28;20047;-68
2023/04/05 03:44:05;;;;;;;8.88;5.10;;;77.00;2227.20;;;;;;5096175;28;20040;-68
2023/04/05 03:46:31;;;;;;;17.27;5.50;;;76.90;2227.20;;;;;;5091573;28;20086;-68
2023/04/05 03:48:57;;;;;;;14.07;5.85;;;76.90;2227.20;;;;;;5087168;28;20031;-68
2023/04/05 03:51:23;;;;;;;9.48;4.97;;;77.00;2227.20;;;;;;5096016;28;20112;-68
2023/04/05 03:53:50;;;;;;;;;;;77.10;2227.20;;;;;;5096453;28;20489;-68
2023/04/05 03:56:15;;;;;;;7.57;4.70;;;77.10;2227.20;;;;;;5095578;28;20292;-68
2023/04/05 03:58:41;;;;;;;;;;;77.10;2227.20;;;;;;5096413;28;20016;-68
2023/04/05 04:01:07;;;;;;;17.23;5.95;;;77.10;2227.20;;;;;;5095558;28;20272;-68
2023/04/05 04:03:33;;;;;;;13.80;5.53;;;77.20;2227.20;;;;;;5083707;28;20046;-68
2023/04/05 04:05:58;;;;;;;;;;;77.30;2227.20;;;;;;5094194;28;20022;-68
2023/04/05 04:08:25;;;;;;;12.65;5.90;;;77.20;2227.20;;;;;;5095938;28;19911;-68
2023/04/05 04:10:50;;;;;;;11.20;5.88;;;77.40;2227.20;;;;;;5095435;28;20406;-68
2023/04/05 04:13:18;;;;;;;;;;;77.40;2227.20;;;;;;5096267;28;20031;-68
2023/04/05 04:15:44;;;;;;;13.25;4.90;;;77.50;2227.20;;;;;;5095188;28;20028;-68
2023/04/05 04:18:10;;;;;;;17.75;7.47;;;77.40;2227.20;;;;;;5095676;28;20021;-68
2023/04/05 04:20:39;;;;;;;22.73;7.90;;;77.60;2227.20;;;;;;5095324;28;20028;-68
2023/04/05 04:23:08;;;;;;;16.92;7.53;;;102.40;2227.20;;;;;;5095632;28;20020;-68
2023/04/05 04:25:35;;;;;;;14.90;6.65;;;102.60;2227.20;;;;;;5095309;28;20051;-68
2023/04/05 04:28:03;;;;;;;23.25;8.82;;;102.60;2227.20;;;;;;5095665;28;20027;-68
2023/04/05 04:30:28;;;;;;;18.17;7.40;;;102.60;2227.20;;;;;;5095408;28;20095;-68
2023/04/05 04:32:54;;;;;;;;;;;102.60;2227.20;;;;;;5095697;28;20028;-68
2023/04/05 04:35:25;;;;;;;21.73;8.95;;;102.60;2227.20;;;;;;5095048;28;19911;-68
2023/04/05 04:37:59;;;;;;;22.10;8.35;;;102.60;2227.20;;;;;;5094772;28;20530;-68
2023/04/05 04:40:37;;;;;;;17.38;7.68;;;102.60;2227.20;;;;;;5095067;28;20051;-68
2023/04/05 04:43:03;;;;;;;14.02;6.68;;;102.40;2227.20;;;;;;5094913;28;20036;-68
2023/04/05 04:45:33;;;;;;;17.02;6.38;;;102.40;2227.20;;;;;;5094876;28;20036;-68
2023/04/05 04:47:59;;;;;;;17.08;8.07;;;102.40;2227.20;;;;;;5094599;28;20056;-68
2023/04/05 04:50:26;;;;;;;11.00;5.45;;;102.40;2227.20;;;;;;5095058;28;20060;-68
2023/04/05 04:52:52;;;;;;;13.30;7.20;;;77.70;2227.20;;;;;;5094532;28;20118;-69
2023/04/05 04:55:24;;;;;;;;;;;77.60;2227.20;;;;;;5095525;28;20120;-68
2023/04/05 04:57:51;;;;;;;12.73;6.82;;;77.70;2227.20;;;;;;5094297;28;19911;-69
2023/04/05 05:00:17;;;;;;;15.18;7.20;;;77.70;2227.20;;;;;;5094913;28;20024;-68
2023/04/05 05:02:43;;;;;;;14.27;7.00;;;77.70;2227.20;;;;;;5081193;28;20012;-67
2023/04/05 05:05:10;;;;;;;;;;;77.60;2227.20;;;;;;5095118;28;20035;-68
2023/04/05 05:07:40;;;;;;;20.40;8.93;;;77.70;2227.20;;;;;;5082167;28;19908;-69
2023/04/05 05:10:06;;;;;;;16.83;8.20;;;102.40;2227.20;;;;;;5066628;28;20089;-68
2023/04/05 05:12:32;;;;;;;23.13;9.65;;;77.70;2227.20;;;;;;5062186;28;20435;-68
2023/04/05 05:14:58;;;;;;;;;;;102.40;2227.20;;;;;;5067004;28;20037;-68
2023/04/05 05:17:23;;;;;;;14.25;7.30;;;102.40;2227.20;;;;;;5063096;28;19908;-67
2023/04/05 05:19:50;;;;;;;;;;;77.70;2227.20;;;;;;5060724;28;20029;-69
2023/04/05 05:22:16;;;;;;;13.40;7.03;;;102.40;2227.20;;;;;;5067047;28;19917;-68
2023/04/05 05:24:42;;;;;;;;;;;77.70;2227.20;;;;;;5057189;28;20282;-68
2023/04/05 05:27:08;;;;;;;12.70;6.43;;;77.70;2227.20;;;;;;5061215;28;19909;-67
2023/04/05 05:29:33;;;;;;;;;;;77.70;2227.20;;;;;;5058989;28;20631;-67
2023/04/05 05:31:59;;;;;;;17.20;7.78;;;77.70;2227.20;;;;;;5061590;28;19991;-68
2023/04/05 05:34:25;;;;;;;;;;;102.40;2227.20;;;;;;5056754;28;20025;-68
2023/04/05 05:36:52;;;;;;;18.20;9.30;;;102.40;2227.20;;;;;;5065149;28;19921;-68
2023/04/05 05:39:19;;;;;;;17.88;8.88;;;102.40;2227.20;;;;;;5056746;28;20096;-68
2023/04/05 05:41:45;;;;;;;17.15;7.20;;;102.40;2227.20;;;;;;5055011;28;20094;-68
2023/04/05 05:44:10;;;;;;;;;;;102.40;2227.20;;;;;;5065103;28;20470;-68
2023/04/05 05:46:36;;;;;;;16.20;8.75;;;77.70;2227.20;;;;;;5062892;28;19959;-68
2023/04/05 05:49:02;;;;;;;;;;;102.40;2227.20;;;;;;5057206;28;20100;-67
2023/04/05 05:51:27;;;;;;;16.65;9.18;;;77.70;2227.20;;;;;;5072438;28;19908;-69
2023/04/05 05:53:53;;;;;;;;;;;102.40;2227.20;;;;;;5067062;28;20065;-69
2023/04/05 05:56:18;;;;;;;20.92;8.35;;;102.40;2227.20;;;;;;5058979;28;19921;-70
2023/04/05 05:58:45;;;;;;;;;;;102.50;2227.20;;;;;;5065261;28;20063;-68
2023/04/05 06:01:10;;;;;;;17.55;9.40;;;102.40;2227.20;;;;;;5054910;28;19917;-68
2023/04/05 06:03:36;;;;;;;;;;;102.40;2227.20;;;;;;5057133;28;20021;-68
2023/04/05 06:06:07;;;;;;;13.85;8.00;;;102.40;2227.20;;;;;;5064159;28;19956;-73
2023/04/05 06:08:33;;;;;;;17.63;7.75;;;77.70;2227.20;;;;;;5058315;28;20077;-69
2023/04/05 06:10:59;;;;;;;18.85;8.55;;;102.40;2227.20;;;;;;5060353;28;20036;-69
2023/04/05 06:13:25;;;;;;;;;;;102.40;2227.20;;;;;;5058600;28;20032;-68
2023/04/05 06:15:50;;;;;;;16.55;8.85;;;102.50;2227.20;;;;;;5063696;28;19924;-71
2023/04/05 06:18:16;;;;;;;;;;;102.50;2227.20;;;;;;5061991;28;20072;-75
2023/04/05 06:20:43;;;;;;;22.50;10.88;;;102.40;2227.20;;;;;;5060181;28;20369;-75
2023/04/05 06:23:10;;;;;;;27.48;12.43;;;102.40;2227.20;;;;;;5067013;28;20029;-71
2023/04/05 06:25:35;;;;;;;19.73;9.82;;;77.70;2227.20;;;;;;5064411;28;20385;-70
2023/04/05 06:28:02;;;;;;;;;;;77.70;2227.20;;;;;;5063242;28;20028;-68
2023/04/05 06:30:27;;;;;;;25.63;11.43;;;102.50;2227.20;;;;;;5064799;28;20006;-69
2023/04/05 06:32:53;;;;;;;;;;;102.50;2227.20;;;;;;5059059;28;20051;-72
2023/04/05 06:35:23;;;;;;;32.28;13.50;;;102.50;2227.20;;;;;;5056766;28;19913;-69
2023/04/05 06:37:49;;;;;;;21.27;9.27;;;102.50;2227.20;;;;;;5057140;28;20023;-74
2023/04/05 06:40:16;;;;;;;15.15;8.35;;;102.40;2227.20;;;;;;5063897;28;20449;-69
2023/04/05 06:42:42;;;;;;;15.88;9.07;;;102.40;2227.20;;;;;;5056688;28;20478;-69
2023/04/05 06:45:07;;;;;;;;;;;102.50;2227.20;;;;;;5055841;28;20045;-68
2023/04/05 06:47:39;;;;;;;14.05;7.20;;;102.50;2227.20;;;;;;5060314;28;19928;-68
2023/04/05 06:50:07;;;;;;;20.73;8.23;;;102.50;2227.20;;;;;;5061289;28;20036;-70
2023/04/05 06:52:33;;;;;;;19.00;8.02;;;102.60;2227.20;;;;;;5058039;28;20048;-71
2023/04/05 06:54:59;;;;;;;21.75;9.02;;;102.50;2227.20;;;;;;5071003;28;20029;-68
2023/04/05 06:57:25;;;;;;;18.08;9.77;;;102.60;2227.20;;;;;;5054806;28;20029;-71
2023/04/05 06:59:52;;;;;;;18.80;8.50;;;102.60;2227.20;;;;;;5062759;28;20140;-69
2023/04/05 07:02:19;;;;;;;15.40;8.55;;;102.60;2227.20;;;;;;5058769;28;20025;-69
2023/04/05 07:04:45;;;;;;;19.00;10.50;;;102.80;2227.20;;;;;;5056359;28;20017;-70
2023/04/05 07:07:11;;;;;;;21.05;10.40;;;102.80;2227.20;;;;;;5061499;28;20119;-67
2023/04/05 07:09:38;;;;;;;;;;;102.90;2227.20;;;;;;5062995;28;20056;-68
2023/04/05 07:12:05;;;;;;;16.25;8.13;;;103.00;2227.20;;;;;;5060581;28;19908;-67
2023/04/05 07:14:32;;;;;;;17.73;8.63;;;103.10;2227.20;;;;;;5061069;28;20536;-73
2023/04/05 07:16:58;;;;;;;17.25;8.77;;;103.00;2227.20;;;;;;5061329;28;20182;-69
2023/04/05 07:19:25;;;;;;;19.63;8.43;;;103.00;2227.20;;;;;;5061068;28;20377;-70
2023/04/05 07:21:51;;;;;;;22.02;10.63;;;103.00;2227.20;;;;;;5072837;28;20493;-72
2023/04/05 07:24:16;;;;;;;;;;;103.10;2227.20;;;;;;5066346;28;20559;-70
2023/04/05 07:26:42;;;;;;;14.68;8.95;;;103.20;2227.20;;;;;;5058422;28;19952;-69
2023/04/05 07:29:08;;;;;;;;;;;103.30;2227.20;;;;;;5063032;28;20048;-67
2023/04/05 07:31:34;;;;;;;21.15;7.55;;;128.00;2252.80;;;;;;5062084;28;20372;-69
2023/04/05 07:34:00;;;;;;;;;;;103.30;2227.20;;;;;;5066734;28;20025;-69
2023/04/05 07:36:27;;;;;;;14.27;7.20;;;103.30;2227.20;;;;;;5061461;28;19913;-68
2023/04/05 07:38:53;;;;;;;19.15;9.27;;;103.30;2227.20;;;;;;5058029;28;20478;-69
2023/04/05 07:41:19;;;;;;;16.42;8.95;;;128.10;2252.80;;;;;;5061122;28;20021;-70
2023/04/05 07:43:45;;;;;;;;;;;128.30;2252.80;;;;;;5068901;28;20470;-69
2023/04/05 07:46:11;;;;;;;16.75;8.38;;;128.20;2252.80;;;;;;5062336;28;19924;-67
2023/04/05 07:48:37;;;;;;;14.30;7.18;;;128.20;2252.80;;;;;;5061197;28;20082;-70
2023/04/05 07:51:03;;;;;;;;;;;128.40;2252.80;;;;;;5065171;28;20041;-69
2023/04/05 07:53:29;;;;;;;13.73;6.57;;;128.40;2252.80;;;;;;5063063;28;19963;-68
2023/04/05 07:55:56;;;;;;;;;;;128.20;2252.80;;;;;;5060370;28;20033;-68
2023/04/05 07:58:22;;;;;;;12.32;5.60;;;128.20;2252.80;;;;;;5067860;28;19909;-72
2023/04/05 08:00:48;;;;;;;;;;;128.00;2252.80;;;;;;5069492;28;20029;-69
2023/04/05 08:03:13;;;;;;;11.30;6.10;;;128.10;2252.80;;;;;;5058957;28;19919;-70
2023/04/05 08:05:39;;;;;;;;;;;128.20;2252.80;;;;;;5060927;28;20043;-70
2023/04/05 08:08:07;;;;;;;17.38;6.63;;;128.20;2252.80;;;;;;5061758;28;19909;-69
2023/04/05 08:10:38;;;;;;;16.70;7.15;;;128.10;2252.80;;;;;;5066119;28;20070;-74
2023/04/05 08:13:05;;;;;;;13.38;7.80;;;128.20;2252.80;;;;;;5063059;28;20024;-68
2023/04/05 08:15:32;;;;;;;12.32;6.20;;;128.30;2252.80;;;;;;5064505;28;20040;-70
2023/04/05 08:17:58;;;;;;;12.80;8.07;;;128.20;2252.80;;;;;;5062247;28;20103;-69
2023/04/05 08:20:23;;;;;;;;;;;128.40;2252.80;;;;;;5061099;28;20116;-69
2023/04/05 08:22:49;;;;;;;10.68;6.50;;;128.30;2252.80;;;;;;5065651;28;20393;-71
2023/04/05 08:25:15;;;;;;;;;;;128.30;2252.80;;;;;;5064872;28;20544;-67
2023/04/05 08:27:41;;;;;;;13.95;7.40;;;128.40;2252.80;;;;;;5058428;28;20220;-68
2023/04/05 08:30:06;;;;;;;;;;;128.60;2252.80;;;;;;5067178;28;20021;-67
2023/04/05 08:32:33;;;;;;;13.10;6.53;;;128.90;2252.80;;;;;;5060550;28;19908;-67
2023/04/05 08:34:59;;;;;;;15.95;7.55;;;128.80;2252.80;;;;;;5060591;28;20052;-67
2023/04/05 08:37:25;;;;;;;;;;;128.90;2252.80;;;;;;5058247;28;20478;-68
2023/04/05 08:39:50;;;;;;;13.88;8.45;;;153.70;2252.80;;;;;;5064616;28;19912;-67
2023/04/05 08:42:17;;;;;;;;;;;153.80;2252.80;;;;;;5069822;28;20024;-70
2023/04/05 08:44:45;;;;;;;11.35;6.07;;;153.70;2252.80;;;;;;5075531;28;19915;-72
2023/04/05 08:47:14;;;;;;;19.33;7.65;;;153.60;2252.80;;;;;;5065380;28;20571;-67
2023/04/05 08:49:44;;;;;;;16.42;8.10;;;153.80;2252.80;;;;;;5065777;28;20158;-68
2023/04/05 08:52:10;;;;;;;13.45;7.03;;;153.90;2252.80;;;;;;5066582;28;20021;-68
2023/04/05 08:54:36;;;;;;;15.10;8.05;;;154.00;2252.80;;;;;;5057810;28;20070;-67
2023/04/05 08:57:04;;;;;;;;;;;154.10;2252.80;;;;;;5065944;28;20037;-67
2023/04/05 08:59:34;;;;;;;12.85;7.07;;;154.00;2252.80;;;;;;5065499;28;19908;-68
2023/04/05 09:02:02;;;;;;;13.95;6.88;;;153.90;2252.80;;;;;;5060588;28;20039;-69
2023/04/05 09:04:30;;;;;;;17.90;9.00;;;153.80;2252.80;;;;;;5064221;28;20017;-76
2023/04/05 09:07:05;;;;;;;20.17;11.10;;;153.90;2252.80;;;;;;5062452;28;20025;-70
2023/04/05 09:09:34;;;;;;;17.48;7.90;;;154.00;2252.80;;;;;;5067913;28;20098;-69
2023/04/05 09:12:06;;;;;;;13.45;7.05;;;153.90;2252.80;;;;;;5059458;28;20017;-68
2023/04/05 09:14:33;;;;;;;14.15;7.93;;;153.90;2252.80;;;;;;5057110;28;20028;-68
2023/04/05 09:17:02;;;;;;;15.75;7.95;;;154.00;2252.80;;;;;;5064671;28;20082;-70
2023/04/05 09:19:30;;;;;;;16.13;8.82;;;154.10;2252.80;;;;;;5061995;28;20028;-70
2023/04/05 09:22:04;;;;;;;13.65;7.25;;;154.10;2252.80;;;;;;5060412;28;20478;-69
2023/04/05 09:24:41;;;;;;;21.17;9.05;;;154.20;2252.80;;;;;;5062297;28;20095;-70
2023/04/05 09:27:11;;;;;;;12.48;6.80;;;154.20;2252.80;;;;;;5065580;28;20079;-69
2023/04/05 09:29:39;;;;;;;12.65;7.40;;;154.00;2252.80;;;;;;5061197;28;20037;-70
2023/04/05 09:32:06;;;;;;;15.23;8.32;;;154.00;2252.80;;;;;;5087721;28;20033;-70
2023/04/05 09:34:35;;;;;;;16.27;8.73;;;154.00;2252.80;;;;;;5065850;28;20035;-71
2023/04/05 09:37:01;;;;;;;18.65;9.52;;;154.20;2252.80;;;;;;5065518;28;20481;-71
2023/04/05 09:39:31;;;;;;;;;;;154.20;2252.80;;;;;;5060325;28;20028;-71
2023/04/05 09:42:08;;;;;;;13.43;7.03;;;154.10;2252.80;;;;;;5057547;28;19909;-70
2023/04/05 09:44:57;;;;;;;13.98;7.97;;;154.00;2252.80;;;;;;5061061;28;20029;-70
2023/04/05 09:47:29;;;;;;;13.07;7.05;;;154.00;2252.80;;;;;;5060408;28;20041;-69
2023/04/05 09:49:56;;;;;;;13.25;5.90;;;154.10;2252.80;;;;;;5061854;28;20044;-70
2023/04/05 09:52:26;;;;;;;16.65;7.20;;;154.10;2252.80;;;;;;5064038;28;20478;-68
2023/04/05 09:54:56;;;;;;;11.65;6.88;;;154.30;2252.80;;;;;;5068399;28;20482;-69
2023/04/05 09:57:25;;;;;;;15.35;7.60;;;154.50;2252.80;;;;;;5061032;28;20118;-69
2023/04/05 09:59:51;;;;;;;14.30;7.63;;;179.20;2252.80;;;;;;5066589;28;20032;-69
2023/04/05 10:02:16;;;;;;;;;;;154.50;2252.80;;;;;;5053391;28;20021;-69
2023/04/05 10:04:45;;;;;;;15.85;8.65;;;179.20;2252.80;;;;;;5063946;28;20273;-69
2023/04/05 10:07:18;;;;;;;17.13;7.85;;;179.20;2252.80;;;;;;5073892;28;20040;-68
2023/04/05 10:09:46;;;;;;;11.57;6.50;;;179.20;2252.80;;;;;;5070414;28;20032;-68
2023/04/05 10:12:25;;;;;;;13.63;7.28;;;179.20;2252.80;;;;;;5079285;28;20029;-69
2023/04/05 10:14:51;;;;;;;15.73;8.82;;;154.50;2252.80;;;;;;5058405;28;20020;-69
2023/04/05 10:17:29;;;;;;;17.15;10.15;;;154.50;2252.80;;;;;;5060180;28;20041;-69
2023/04/05 10:20:07;;;;;;;17.13;8.52;;;179.30;2252.80;;;;;;5063577;28;20028;-70
2023/04/05 10:22:40;;;;;;;17.25;8.18;;;179.20;2252.80;;;;;;5057937;28;20055;-69
2023/04/05 10:25:20;;;;;;;14.40;7.90;;;179.20;2252.80;;;;;;5062148;28;20032;-78
2023/04/05 10:27:48;;;;;;;17.67;7.68;;;179.20;2252.80;;;;;;5062324;28;20056;-68
2023/04/05 10:30:16;;;;;;;12.50;7.43;;;154.50;2252.80;;;;;;5062833;28;20536;-69
2023/04/05 10:32:56;;;;;;;14.30;6.97;;;179.30;2252.80;;;;;;5064362;28;20462;-68
2023/04/05 10:35:49;;;;;;;16.77;8.00;;;179.30;2252.80;;;;;;5059599;28;20111;-69
2023/04/05 10:38:26;;;;;;;12.60;6.60;;;179.30;2252.80;;;;;;5059874;28;20107;-69
2023/04/05 10:41:04;;;;;;;18.13;7.75;;;179.30;2252.80;;;;;;5064309;28;20056;-69
2023/04/05 10:43:33;;;;;;;16.73;8.60;;;179.40;2252.80;;;;;;5066383;28;20402;-68
2023/04/05 10:46:01;;;;;;;13.80;7.18;;;179.40;2252.80;;;;;;5061852;28;20110;-68
2023/04/05 10:48:39;;;;;;;12.98;7.65;;;179.20;2252.80;;;;;;5058811;28;20538;-68
2023/04/05 10:51:06;;;;;;;18.20;7.40;;;179.30;2252.80;;;;;;5065767;28;20025;-69
2023/04/05 10:53:33;;;;;;;11.52;7.55;;;179.30;2252.80;;;;;;5062211;28;20100;-70
2023/04/05 10:56:00;;;;;;;14.45;7.15;;;179.30;2252.80;;;;;;5060632;28;20123;-70
2023/04/05 10:58:27;;;;;;;12.82;6.28;;;179.30;2252.80;;;;;;5056408;28;20401;-68
2023/04/05 11:00:54;;;;;;;14.80;7.00;;;179.30;2252.80;;;;;;5063792;28;20487;-68
2023/04/05 11:04:01;;;;;;;18.67;8.90;;;179.30;2252.80;;;;;;5054636;28;20024;-70
2023/04/05 11:06:32;;;;;;;7.97;5.00;;;179.30;2252.80;;;;;;5064098;28;20029;-68
2023/04/05 11:08:59;;;;;;;12.43;7.45;;;179.30;2252.80;;;;;;5070588;28;20052;-67
2023/04/05 11:11:26;;;;;;;15.45;7.63;;;179.20;2252.80;;;;;;5063681;28;20029;-69
2023/04/05 11:13:56;;;;;;;16.00;7.00;;;179.20;2252.80;;;;;;5063025;28;20052;-69
2023/04/05 11:16:36;;;;;;;12.80;7.68;;;179.20;2252.80;;;;;;5059059;28;20394;-67
2023/04/05 11:19:02;;;;;;;14.63;7.68;;;179.40;2252.80;;;;;;5064886;28;20476;-70
2023/04/05 11:21:28;;;;;;;;;;;179.30;2252.80;;;;;;5078565;28;20112;-69
2023/04/05 11:24:05;;;;;;;17.20;8.40;;;179.30;2252.80;;;;;;5067942;28;20353;-74
2023/04/05 11:26:43;;;;;;;16.00;8.00;;;179.30;2252.80;;;;;;5064970;28;20043;-70
2023/04/05 11:29:09;;;;;;;13.27;7.00;;;179.40;2252.80;;;;;;5067796;28;20524;-70
2023/04/05 11:31:35;;;;;;;13.15;7.18;;;179.40;2252.80;;;;;;5070677;28;20023;-70
2023/04/05 11:34:11;;;;;;;;;;;179.20;2252.80;;;;;;5065493;28;20112;-69
2023/04/05 11:36:40;;;;;;;16.42;7.25;;;179.30;2252.80;;;;;;5063496;28;19970;-68
2023/04/05 11:39:20;;;;;;;15.18;7.13;;;179.20;2252.80;;;;;;5060984;28;20040;-68
2023/04/05 11:41:52;;;;;;;14.88;8.25;;;179.30;2252.80;;;;;;5071699;28;20123;-69
2023/04/05 11:44:18;;;;;;;17.20;7.53;;;179.40;2252.80;;;;;;5065630;28;20032;-70
2023/04/05 11:46:45;;;;;;;;;;;179.30;2252.80;;;;;;5084084;28;20405;-69
2023/04/05 11:49:11;;;;;;;;;;;179.50;2252.80;;;;;;5060261;28;20278;-68
2023/04/05 11:51:41;;;;;;;12.05;6.55;;;179.50;2252.80;;;;;;5060324;28;19908;-69
2023/04/05 11:54:07;;;;;;;16.50;7.47;;;179.80;2252.80;;;;;;5065183;28;20096;-68
2023/04/05 11:56:33;;;;;;;11.70;6.75;;;179.90;2252.80;;;;;;5068483;28;20036;-71
2023/04/05 11:58:59;;;;;;;;;;;179.90;2252.80;;;;;;5063839;28;20021;-70
2023/04/05 12:01:24;;;;;;;13.50;7.60;;;179.70;2227.20;;;;;;5069982;28;20007;-68
2023/04/05 12:03:54;;;;;;;;;;;179.70;2252.80;;;;;;5085065;28;20486;-69
2023/04/05 12:06:22;;;;;;;13.45;7.88;;;179.60;2252.80;;;;;;5065162;28;19999;-68
2023/04/05 12:08:51;;;;;;;18.45;7.93;;;179.70;2252.80;;;;;;5059334;28;20152;-75
2023/04/05 12:11:30;;;;;;;20.02;9.57;;;179.70;2252.80;;;;;;5066890;28;20398;-69
2023/04/05 12:13:57;;;;;;;17.52;8.63;;;179.70;2252.80;;;;;;5064946;28;20020;-69
2023/04/05 12:16:23;;;;;;;16.60;9.98;;;179.70;2252.80;;;;;;5060435;28;20037;-69
2023/04/05 12:18:56;;;;;;;;;;;179.70;2252.80;;;;;;5065288;28;20110;-68
2023/04/05 12:21:22;;;;;;;13.48;7.65;;;179.80;2252.80;;;;;;5059455;28;19916;-69
2023/04/05 12:23:52;;;;;;;11.18;6.45;;;179.80;2252.80;;;;;;5065534;28;20096;-69
2023/04/05 12:26:18;;;;;;;12.10;6.40;;;179.70;2252.80;;;;;;5058392;28;20393;-70
2023/04/05 12:28:54;;;;;;;11.98;6.93;;;179.70;2252.80;;;;;;5073847;28;20055;-70
2023/04/05 12:31:41;;;;;;;18.55;7.80;;;179.70;2252.80;;;;;;5067309;28;20024;-69
2023/04/05 12:34:08;;;;;;;12.80;6.25;;;179.70;2252.80;;;;;;5070744;28;20024;-75
2023/04/05 12:36:34;;;;;;;11.68;6.60;;;179.70;2252.80;;;;;;5066949;28;20397;-70
2023/04/05 12:39:05;;;;;;;13.10;6.50;;;179.70;2252.80;;;;;;5064852;28;20454;-70